Minerva Libra — SVAA7 — position and weather

sailwx.info

Track history (hours):
 
Tides and Currents Weather Stations Pressure Air Temp Water Temp Dewpoint Dewpoint Depression Visibility Wind Speed Wind Dir Waves Ship Positions

Minerva Libra

Last reported at 2016-Jul-26 23:10 UTC. Time now 2016-Jul-28 00:58 UTC.
Position N 33°25' E 025°24'.

Length 250 m; draft 8.5 m.

Type: Tanker. MMSI: 240766000.

Date/timePositionNaut miles runAvg speedWind from/ knotsBaromVisibWave heightAir tempDewpointWater temp
2016-Jul-26 23:10N 33°25' E 025°24'52813.0
2016-Jul-25 06:30N 36°10' E 015°13'1313.9
2016-Jul-25 05:34N 36°14' E 014°57'1413.8
2016-Jul-25 04:34N 36°18' E 014°41'1414.0
2016-Jul-25 03:33N 36°22' E 014°25'1514.8
2016-Jul-25 02:33N 36°27' E 014°07'1514.5
2016-Jul-25 01:33N 36°32' E 013°50'1413.9
2016-Jul-25 00:34N 36°35' E 013°33'1414.1
2016-Jul-24 23:34N 36°39' E 013°17'1414.1
2016-Jul-24 22:33N 36°44' E 012°60'1413.8
2016-Jul-24 21:34N 36°47' E 012°43'1513.9
2016-Jul-24 20:30N 36°52' E 012°26'17513.1
2016-Jul-24 07:07N 39°30' E 010°51'5013.8
2016-Jul-24 03:27N 40°19' E 010°34'1314.1
2016-Jul-24 02:33N 40°32' E 010°30'12914.0
2016-Jul-23 17:24N 42°36' E 009°47'2413.3
2016-Jul-23 15:33N 42°60' E 009°38'1312.9
2016-Jul-23 14:33N 43°12' E 009°33'1312.7
2016-Jul-23 13:34N 43°24' E 009°29'1312.8
2016-Jul-23 12:33N 43°37' E 009°24'1313.1
2016-Jul-23 11:33N 43°48' E 009°15'1313.3
2016-Jul-23 10:34N 43°59' E 009°05'1413.7
2016-Jul-23 09:34N 44°11' E 008°55'1313.2
2016-Jul-23 08:33N 44°22' E 008°46'4 3.7
2016-Jul-23 07:30N 44°25' E 008°50'0 0.0
2016-Jul-23 06:33N 44°25' E 008°50'0 0.0
2016-Jul-23 04:33N 44°25' E 008°50'0 0.0
2016-Jul-23 03:33N 44°25' E 008°50'0 0.0
2016-Jul-23 02:33N 44°25' E 008°50'0 0.0
2016-Jul-23 01:33N 44°25' E 008°50'0 0.0
2016-Jul-23 00:33N 44°25' E 008°50'0 0.0
2016-Jul-22 23:30N 44°25' E 008°50'0 0.0
2016-Jul-22 22:33N 44°25' E 008°50'0 0.0
2016-Jul-22 21:33N 44°25' E 008°50'0 0.0
2016-Jul-22 20:27N 44°25' E 008°50'0 0.0
2016-Jul-22 19:30N 44°25' E 008°50'0 0.0
2016-Jul-22 18:30N 44°25' E 008°50'0 0.0
2016-Jul-22 17:30N 44°25' E 008°50'0 0.0
2016-Jul-22 16:33N 44°25' E 008°50'0 0.0
2016-Jul-22 15:33N 44°25' E 008°50'0 0.0
2016-Jul-22 14:33N 44°25' E 008°50'0 0.0
2016-Jul-22 13:33N 44°25' E 008°50'0 0.0
2016-Jul-22 12:33N 44°25' E 008°50'0 0.0
2016-Jul-22 11:33N 44°25' E 008°50'0 0.0
2016-Jul-22 10:33N 44°25' E 008°50'0 0.0
2016-Jul-22 09:24N 44°25' E 008°50'0 0.0
2016-Jul-22 08:24N 44°25' E 008°50'0 0.0
2016-Jul-22 07:27N 44°25' E 008°50'0 0.0
2016-Jul-22 04:30N 44°25' E 008°50'0 0.0
2016-Jul-22 03:30N 44°25' E 008°50'0 0.0
2016-Jul-22 02:33N 44°25' E 008°50'0 0.0
2016-Jul-22 01:33N 44°25' E 008°50'0 0.0
2016-Jul-22 00:33N 44°25' E 008°50'0 0.0
2016-Jul-21 23:33N 44°25' E 008°50'0 0.0
2016-Jul-21 22:33N 44°25' E 008°50'0 0.0
2016-Jul-21 21:33N 44°25' E 008°50'0 0.0
2016-Jul-21 20:33N 44°25' E 008°50'0 0.0
2016-Jul-21 19:33N 44°25' E 008°50'0 0.0
2016-Jul-21 18:30N 44°25' E 008°50'0 0.0
2016-Jul-21 17:27N 44°25' E 008°50'0 0.0
2016-Jul-21 16:27N 44°25' E 008°50'0 0.0
2016-Jul-21 15:30N 44°25' E 008°50'0 0.0
2016-Jul-21 14:30N 44°25' E 008°50'0 0.0
2016-Jul-21 13:30N 44°25' E 008°50'0 0.0
2016-Jul-21 12:30N 44°25' E 008°50'0 0.0
2016-Jul-21 11:33N 44°25' E 008°50'0 0.0
2016-Jul-21 10:30N 44°25' E 008°50'0 0.0
2016-Jul-21 09:33N 44°25' E 008°50'0 0.0
2016-Jul-21 08:33N 44°25' E 008°50'0 0.0
2016-Jul-21 07:33N 44°25' E 008°50'0 0.0
2016-Jul-21 06:33N 44°25' E 008°50'0 0.0
2016-Jul-21 05:33N 44°25' E 008°50'0 0.3
2016-Jul-21 04:33N 44°25' E 008°50'5 4.8
2016-Jul-21 03:33N 44°21' E 008°47'9 9.0
2016-Jul-21 02:33N 44°13' E 008°52'4 4.3
2016-Jul-21 01:34N 44°09' E 008°55'0 0.2
2016-Jul-21 00:33N 44°09' E 008°55'0 0.2
2016-Jul-20 23:33N 44°09' E 008°56'0 0.1
2016-Jul-20 22:33N 44°09' E 008°56'0 0.1
2016-Jul-20 21:33N 44°09' E 008°56'0 0.1
2016-Jul-20 20:33N 44°09' E 008°56'0 0.2
2016-Jul-20 19:33N 44°09' E 008°56'0 0.2
2016-Jul-20 18:33N 44°09' E 008°55'0 0.3
2016-Jul-20 17:33N 44°09' E 008°55'0 0.3
2016-Jul-20 16:33N 44°09' E 008°55'0 0.3
2016-Jul-20 15:33N 44°09' E 008°54'0 0.3
2016-Jul-20 14:33N 44°08' E 008°54'0 0.4
2016-Jul-20 13:33N 44°08' E 008°54'0 0.4
2016-Jul-20 12:33N 44°08' E 008°54'1 1.1
2016-Jul-20 11:33N 44°09' E 008°54'3 2.6
2016-Jul-20 10:33N 44°11' E 008°55'0 0.4
2016-Jul-20 09:34N 44°11' E 008°55'0 0.3
2016-Jul-20 08:33N 44°10' E 008°56'0 0.2
2016-Jul-20 07:33N 44°10' E 008°56'0 0.2
2016-Jul-20 06:34N 44°10' E 008°56'0 0.1
2016-Jul-20 05:33N 44°10' E 008°56'0 0.2
2016-Jul-20 04:33N 44°10' E 008°55'0 0.2
2016-Jul-20 03:33N 44°10' E 008°55'0 0.3
2016-Jul-20 02:33N 44°09' E 008°55'0 0.3
2016-Jul-20 01:33N 44°09' E 008°55'0 0.3
2016-Jul-20 00:33N 44°09' E 008°54'0 0.3
2016-Jul-19 23:33N 44°09' E 008°54'0 0.4
2016-Jul-19 22:33N 44°08' E 008°54'0 0.3
2016-Jul-19 21:33N 44°08' E 008°54'1 1.0
2016-Jul-19 20:33N 44°09' E 008°54'0 0.2
2016-Jul-19 19:33N 44°09' E 008°54'0 0.2
2016-Jul-19 18:33N 44°09' E 008°54'0 0.2
2016-Jul-19 17:33N 44°08' E 008°54'0 0.1
2016-Jul-19 16:33N 44°08' E 008°54'0 0.2
2016-Jul-19 15:33N 44°08' E 008°54'0 0.2
2016-Jul-19 14:33N 44°08' E 008°53'0 0.1
2016-Jul-19 13:33N 44°08' E 008°53'3 2.8
2016-Jul-19 12:33N 44°11' E 008°54'0 0.1
2016-Jul-19 11:33N 44°11' E 008°54'0 0.1
2016-Jul-19 10:33N 44°10' E 008°54'0 0.1
2016-Jul-19 09:33N 44°10' E 008°54'0 0.1
2016-Jul-19 08:33N 44°10' E 008°54'0 0.2
2016-Jul-19 07:33N 44°10' E 008°54'1 0.3
2016-Jul-19 04:33N 44°09' E 008°54'0 0.2
2016-Jul-19 03:33N 44°09' E 008°54'0 0.2
2016-Jul-19 02:33N 44°09' E 008°54'0 0.2
2016-Jul-19 01:33N 44°09' E 008°54'0 0.3
2016-Jul-19 00:33N 44°09' E 008°54'0 0.3
2016-Jul-18 23:33N 44°08' E 008°55'0 0.2
2016-Jul-18 22:33N 44°08' E 008°55'0 0.1
2016-Jul-18 21:33N 44°08' E 008°55'0 0.1
2016-Jul-18 20:33N 44°08' E 008°55'0 0.1
2016-Jul-18 19:33N 44°08' E 008°55'0 0.0
2016-Jul-18 18:33N 44°08' E 008°55'0 0.2
2016-Jul-18 17:33N 44°08' E 008°55'0 0.3
2016-Jul-18 16:33N 44°08' E 008°55'0 0.4
2016-Jul-18 15:33N 44°08' E 008°54'2 2.2
2016-Jul-18 14:33N 44°10' E 008°53'0 0.3
2016-Jul-18 13:33N 44°10' E 008°53'0 0.4
2016-Jul-18 12:33N 44°10' E 008°53'0 0.3
2016-Jul-18 11:33N 44°09' E 008°53'0 0.3
2016-Jul-18 10:33N 44°09' E 008°53'0 0.3
2016-Jul-18 09:33N 44°09' E 008°53'0 0.4
2016-Jul-18 08:33N 44°08' E 008°53'0 0.3
2016-Jul-18 07:33N 44°08' E 008°53'0 0.2
2016-Jul-18 06:33N 44°08' E 008°53'0 0.2
2016-Jul-18 05:33N 44°08' E 008°54'0 0.1
2016-Jul-18 04:33N 44°08' E 008°54'0 0.0
2016-Jul-18 03:33N 44°08' E 008°54'0 0.0
2016-Jul-18 02:33N 44°08' E 008°54'0 0.1
2016-Jul-18 01:33N 44°08' E 008°54'0 0.2
2016-Jul-18 00:33N 44°08' E 008°53'0 0.2
2016-Jul-17 23:33N 44°08' E 008°53'0 0.2
2016-Jul-17 22:33N 44°08' E 008°53'0 0.3
2016-Jul-17 21:33N 44°08' E 008°52'4 4.0
2016-Jul-17 20:33N 44°11' E 008°50'7 7.1
2016-Jul-17 19:33N 44°18' E 008°52'1110.9
2016-Jul-17 18:33N 44°09' E 008°59'1111.1
2016-Jul-17 17:33N 43°59' E 009°06'1111.0
2016-Jul-17 16:33N 43°50' E 009°14'1110.9
2016-Jul-17 15:33N 43°40' E 009°21'1110.6
2016-Jul-17 14:33N 43°29' E 009°23'1110.7
2016-Jul-17 13:33N 43°19' E 009°26'1111.2
2016-Jul-17 12:33N 43°09' E 009°32'1212.1
2016-Jul-17 11:33N 42°57' E 009°38'4312.4
2016-Jul-17 08:08N 42°17' E 009°55'1012.3
2016-Jul-17 07:21N 42°07' E 009°58'3613.0
2016-Jul-17 04:33N 41°33' E 010°12'  
Track history (hours):
 
Tides and Currents Weather Stations Pressure Air Temp Water Temp Dewpoint Dewpoint Depression Visibility Wind Speed Wind Dir Waves Ship Positions

Minerva Libra

Last reported at 2016-Jul-26 23:10 UTC. Time now 2016-Jul-28 00:58 UTC.
Position N 33°25' E 025°24'.

Length 250 m; draft 8.5 m.

Type: Tanker. MMSI: 240766000.

Date/timePositionNaut miles runAvg speedWind from/ knotsBaromVisibWave heightAir tempDewpointWater temp
2016-Jul-26 23:10N 33°25' E 025°24'52813.0
2016-Jul-25 06:30N 36°10' E 015°13'1313.9
2016-Jul-25 05:34N 36°14' E 014°57'1413.8
2016-Jul-25 04:34N 36°18' E 014°41'1414.0
2016-Jul-25 03:33N 36°22' E 014°25'1514.8
2016-Jul-25 02:33N 36°27' E 014°07'1514.5
2016-Jul-25 01:33N 36°32' E 013°50'1413.9
2016-Jul-25 00:34N 36°35' E 013°33'1414.1
2016-Jul-24 23:34N 36°39' E 013°17'1414.1
2016-Jul-24 22:33N 36°44' E 012°60'1413.8
2016-Jul-24 21:34N 36°47' E 012°43'1513.9
2016-Jul-24 20:30N 36°52' E 012°26'17513.1
2016-Jul-24 07:07N 39°30' E 010°51'5013.8
2016-Jul-24 03:27N 40°19' E 010°34'1314.1
2016-Jul-24 02:33N 40°32' E 010°30'12914.0
2016-Jul-23 17:24N 42°36' E 009°47'2413.3
2016-Jul-23 15:33N 42°60' E 009°38'1312.9
2016-Jul-23 14:33N 43°12' E 009°33'1312.7
2016-Jul-23 13:34N 43°24' E 009°29'1312.8
2016-Jul-23 12:33N 43°37' E 009°24'1313.1
2016-Jul-23 11:33N 43°48' E 009°15'1313.3
2016-Jul-23 10:34N 43°59' E 009°05'1413.7
2016-Jul-23 09:34N 44°11' E 008°55'1313.2
2016-Jul-23 08:33N 44°22' E 008°46'4 3.7
2016-Jul-23 07:30N 44°25' E 008°50'0 0.0
2016-Jul-23 06:33N 44°25' E 008°50'0 0.0
2016-Jul-23 04:33N 44°25' E 008°50'0 0.0
2016-Jul-23 03:33N 44°25' E 008°50'0 0.0
2016-Jul-23 02:33N 44°25' E 008°50'0 0.0
2016-Jul-23 01:33N 44°25' E 008°50'0 0.0
2016-Jul-23 00:33N 44°25' E 008°50'0 0.0
2016-Jul-22 23:30N 44°25' E 008°50'0 0.0
2016-Jul-22 22:33N 44°25' E 008°50'0 0.0
2016-Jul-22 21:33N 44°25' E 008°50'0 0.0
2016-Jul-22 20:27N 44°25' E 008°50'0 0.0
2016-Jul-22 19:30N 44°25' E 008°50'0 0.0
2016-Jul-22 18:30N 44°25' E 008°50'0 0.0
2016-Jul-22 17:30N 44°25' E 008°50'0 0.0
2016-Jul-22 16:33N 44°25' E 008°50'0 0.0
2016-Jul-22 15:33N 44°25' E 008°50'0 0.0
2016-Jul-22 14:33N 44°25' E 008°50'0 0.0
2016-Jul-22 13:33N 44°25' E 008°50'0 0.0
2016-Jul-22 12:33N 44°25' E 008°50'0 0.0
2016-Jul-22 11:33N 44°25' E 008°50'0 0.0
2016-Jul-22 10:33N 44°25' E 008°50'0 0.0
2016-Jul-22 09:24N 44°25' E 008°50'0 0.0
2016-Jul-22 08:24N 44°25' E 008°50'0 0.0
2016-Jul-22 07:27N 44°25' E 008°50'0 0.0
2016-Jul-22 04:30N 44°25' E 008°50'0 0.0
2016-Jul-22 03:30N 44°25' E 008°50'0 0.0
2016-Jul-22 02:33N 44°25' E 008°50'0 0.0
2016-Jul-22 01:33N 44°25' E 008°50'0 0.0
2016-Jul-22 00:33N 44°25' E 008°50'0 0.0
2016-Jul-21 23:33N 44°25' E 008°50'0 0.0
2016-Jul-21 22:33N 44°25' E 008°50'0 0.0
2016-Jul-21 21:33N 44°25' E 008°50'0 0.0
2016-Jul-21 20:33N 44°25' E 008°50'0 0.0
2016-Jul-21 19:33N 44°25' E 008°50'0 0.0
2016-Jul-21 18:30N 44°25' E 008°50'0 0.0
2016-Jul-21 17:27N 44°25' E 008°50'0 0.0
2016-Jul-21 16:27N 44°25' E 008°50'0 0.0
2016-Jul-21 15:30N 44°25' E 008°50'0 0.0
2016-Jul-21 14:30N 44°25' E 008°50'0 0.0
2016-Jul-21 13:30N 44°25' E 008°50'0 0.0
2016-Jul-21 12:30N 44°25' E 008°50'0 0.0
2016-Jul-21 11:33N 44°25' E 008°50'0 0.0
2016-Jul-21 10:30N 44°25' E 008°50'0 0.0
2016-Jul-21 09:33N 44°25' E 008°50'0 0.0
2016-Jul-21 08:33N 44°25' E 008°50'0 0.0
2016-Jul-21 07:33N 44°25' E 008°50'0 0.0
2016-Jul-21 06:33N 44°25' E 008°50'0 0.0
2016-Jul-21 05:33N 44°25' E 008°50'0 0.3
2016-Jul-21 04:33N 44°25' E 008°50'5 4.8
2016-Jul-21 03:33N 44°21' E 008°47'9 9.0
2016-Jul-21 02:33N 44°13' E 008°52'4 4.3
2016-Jul-21 01:34N 44°09' E 008°55'0 0.2
2016-Jul-21 00:33N 44°09' E 008°55'0 0.2
2016-Jul-20 23:33N 44°09' E 008°56'0 0.1
2016-Jul-20 22:33N 44°09' E 008°56'0 0.1
2016-Jul-20 21:33N 44°09' E 008°56'0 0.1
2016-Jul-20 20:33N 44°09' E 008°56'0 0.2
2016-Jul-20 19:33N 44°09' E 008°56'0 0.2
2016-Jul-20 18:33N 44°09' E 008°55'0 0.3
2016-Jul-20 17:33N 44°09' E 008°55'0 0.3
2016-Jul-20 16:33N 44°09' E 008°55'0 0.3
2016-Jul-20 15:33N 44°09' E 008°54'0 0.3
2016-Jul-20 14:33N 44°08' E 008°54'0 0.4
2016-Jul-20 13:33N 44°08' E 008°54'0 0.4
2016-Jul-20 12:33N 44°08' E 008°54'1 1.1
2016-Jul-20 11:33N 44°09' E 008°54'3 2.6
2016-Jul-20 10:33N 44°11' E 008°55'0 0.4
2016-Jul-20 09:34N 44°11' E 008°55'0 0.3
2016-Jul-20 08:33N 44°10' E 008°56'0 0.2
2016-Jul-20 07:33N 44°10' E 008°56'0 0.2
2016-Jul-20 06:34N 44°10' E 008°56'0 0.1
2016-Jul-20 05:33N 44°10' E 008°56'0 0.2
2016-Jul-20 04:33N 44°10' E 008°55'0 0.2
2016-Jul-20 03:33N 44°10' E 008°55'0 0.3
2016-Jul-20 02:33N 44°09' E 008°55'0 0.3
2016-Jul-20 01:33N 44°09' E 008°55'0 0.3
2016-Jul-20 00:33N 44°09' E 008°54'0 0.3
2016-Jul-19 23:33N 44°09' E 008°54'0 0.4
2016-Jul-19 22:33N 44°08' E 008°54'0 0.3
2016-Jul-19 21:33N 44°08' E 008°54'1 1.0
2016-Jul-19 20:33N 44°09' E 008°54'0 0.2
2016-Jul-19 19:33N 44°09' E 008°54'0 0.2
2016-Jul-19 18:33N 44°09' E 008°54'0 0.2
2016-Jul-19 17:33N 44°08' E 008°54'0 0.1
2016-Jul-19 16:33N 44°08' E 008°54'0 0.2
2016-Jul-19 15:33N 44°08' E 008°54'0 0.2
2016-Jul-19 14:33N 44°08' E 008°53'0 0.1
2016-Jul-19 13:33N 44°08' E 008°53'3 2.8
2016-Jul-19 12:33N 44°11' E 008°54'0 0.1
2016-Jul-19 11:33N 44°11' E 008°54'0 0.1
2016-Jul-19 10:33N 44°10' E 008°54'0 0.1
2016-Jul-19 09:33N 44°10' E 008°54'0 0.1
2016-Jul-19 08:33N 44°10' E 008°54'0 0.2
2016-Jul-19 07:33N 44°10' E 008°54'1 0.3
2016-Jul-19 04:33N 44°09' E 008°54'0 0.2
2016-Jul-19 03:33N 44°09' E 008°54'0 0.2
2016-Jul-19 02:33N 44°09' E 008°54'0 0.2
2016-Jul-19 01:33N 44°09' E 008°54'0 0.3
2016-Jul-19 00:33N 44°09' E 008°54'0 0.3
2016-Jul-18 23:33N 44°08' E 008°55'0 0.2
2016-Jul-18 22:33N 44°08' E 008°55'0 0.1
2016-Jul-18 21:33N 44°08' E 008°55'0 0.1
2016-Jul-18 20:33N 44°08' E 008°55'0 0.1
2016-Jul-18 19:33N 44°08' E 008°55'0 0.0
2016-Jul-18 18:33N 44°08' E 008°55'0 0.2
2016-Jul-18 17:33N 44°08' E 008°55'0 0.3
2016-Jul-18 16:33N 44°08' E 008°55'0 0.4
2016-Jul-18 15:33N 44°08' E 008°54'2 2.2
2016-Jul-18 14:33N 44°10' E 008°53'0 0.3
2016-Jul-18 13:33N 44°10' E 008°53'0 0.4
2016-Jul-18 12:33N 44°10' E 008°53'0 0.3
2016-Jul-18 11:33N 44°09' E 008°53'0 0.3
2016-Jul-18 10:33N 44°09' E 008°53'0 0.3
2016-Jul-18 09:33N 44°09' E 008°53'0 0.4
2016-Jul-18 08:33N 44°08' E 008°53'0 0.3
2016-Jul-18 07:33N 44°08' E 008°53'0 0.2
2016-Jul-18 06:33N 44°08' E 008°53'0 0.2
2016-Jul-18 05:33N 44°08' E 008°54'0 0.1
2016-Jul-18 04:33N 44°08' E 008°54'0 0.0
2016-Jul-18 03:33N 44°08' E 008°54'0 0.0
2016-Jul-18 02:33N 44°08' E 008°54'0 0.1
2016-Jul-18 01:33N 44°08' E 008°54'0 0.2
2016-Jul-18 00:33N 44°08' E 008°53'0 0.2
2016-Jul-17 23:33N 44°08' E 008°53'0 0.2
2016-Jul-17 22:33N 44°08' E 008°53'0 0.3
2016-Jul-17 21:33N 44°08' E 008°52'4 4.0
2016-Jul-17 20:33N 44°11' E 008°50'7 7.1
2016-Jul-17 19:33N 44°18' E 008°52'1110.9
2016-Jul-17 18:33N 44°09' E 008°59'1111.1
2016-Jul-17 17:33N 43°59' E 009°06'1111.0
2016-Jul-17 16:33N 43°50' E 009°14'1110.9
2016-Jul-17 15:33N 43°40' E 009°21'1110.6
2016-Jul-17 14:33N 43°29' E 009°23'1110.7
2016-Jul-17 13:33N 43°19' E 009°26'1111.2
2016-Jul-17 12:33N 43°09' E 009°32'1212.1
2016-Jul-17 11:33N 42°57' E 009°38'4312.4
2016-Jul-17 08:08N 42°17' E 009°55'1012.3
2016-Jul-17 07:21N 42°07' E 009°58'3613.0
2016-Jul-17 04:33N 41°33' E 010°12'  

Dump ship's entire track history